createdAt,value
2019-04-21T00:01:26.514Z,52.18
2019-04-21T00:03:57.525Z,52.19
2019-04-21T00:06:43.947Z,52.64
2019-04-21T00:09:11.433Z,52.66
2019-04-21T00:11:35.593Z,52.87
2019-04-21T00:13:56.216Z,53.07
2019-04-21T00:16:17.197Z,52.94
2019-04-21T00:18:53.443Z,53.22
2019-04-21T00:21:23.243Z,53.10
2019-04-21T00:23:56.199Z,53.40
2019-04-21T00:26:29.067Z,53.64
2019-04-21T00:28:59.474Z,53.92
2019-04-21T00:31:21.811Z,53.76
2019-04-21T00:33:35.603Z,53.58
2019-04-21T00:36:09.294Z,53.71
2019-04-21T00:38:58.810Z,53.84
2019-04-21T00:41:19.064Z,54.18
2019-04-21T00:43:41.266Z,54.65
2019-04-21T00:46:03.251Z,54.57
2019-04-21T00:48:43.982Z,54.67
2019-04-21T00:51:25.192Z,54.47
2019-04-21T00:53:51.149Z,54.35
2019-04-21T00:56:15.598Z,54.29
2019-04-21T00:58:48.476Z,54.32
2019-04-21T01:01:12.158Z,54.34
2019-04-21T01:03:46.240Z,54.48
2019-04-21T01:06:11.415Z,54.09
2019-04-21T01:08:36.024Z,53.71
2019-04-21T01:11:02.093Z,53.54
2019-04-21T01:13:36.262Z,53.42
2019-04-21T01:16:08.542Z,53.19
2019-04-21T01:18:31.331Z,53.02
2019-04-21T01:20:37.537Z,52.98
2019-04-21T01:23:04.341Z,52.82
2019-04-21T01:25:39.341Z,52.84
2019-04-21T01:28:18.873Z,52.84
2019-04-21T01:30:50.239Z,53.00
2019-04-21T01:33:21.594Z,53.59
2019-04-21T01:35:44.057Z,53.82
2019-04-21T01:38:14.308Z,53.94
2019-04-21T01:41:00.643Z,53.96
2019-04-21T01:43:11.527Z,54.15
2019-04-21T01:45:36.985Z,53.99
2019-04-21T01:48:01.187Z,53.87
2019-04-21T01:50:36.546Z,54.14
2019-04-21T01:53:15.576Z,53.99
2019-04-21T01:55:54.377Z,53.91
2019-04-21T01:58:19.377Z,54.06
2019-04-21T02:00:51.874Z,54.19
2019-04-21T02:03:45.387Z,54.24
2019-04-21T02:05:59.654Z,53.90
2019-04-21T02:08:18.247Z,53.22
2019-04-21T02:10:54.919Z,53.04
2019-04-21T02:13:16.873Z,52.71
2019-04-21T02:15:54.427Z,52.48
2019-04-21T02:18:13.473Z,52.30
2019-04-21T02:20:31.756Z,51.90
2019-04-21T02:25:40.014Z,51.66
2019-04-21T02:28:14.814Z,51.42
2019-04-21T02:30:56.918Z,51.11
2019-04-21T02:33:18.638Z,50.89
2019-04-21T02:38:30.642Z,50.62
2019-04-21T02:40:51.491Z,50.45
2019-04-21T02:45:43.322Z,50.27
2019-04-21T02:55:30.513Z,49.93
2019-04-21T03:00:36.710Z,49.98
2019-04-21T03:03:13.583Z,49.95
2019-04-21T03:05:58.712Z,49.93
2019-04-21T03:10:59.212Z,49.83
2019-04-21T03:13:29.835Z,49.82
2019-04-21T03:15:59.195Z,49.60
2019-04-21T03:18:26.392Z,49.49
2019-04-21T03:20:54.918Z,49.44
2019-04-21T03:25:51.986Z,49.29
2019-04-21T03:28:20.131Z,49.24
2019-04-21T03:31:11.581Z,49.24
2019-04-21T03:38:16.645Z,49.26
2019-04-21T03:40:37.903Z,49.24
2019-04-21T03:43:07.874Z,49.34
2019-04-21T03:48:05.217Z,49.20
2019-04-21T03:50:33.770Z,49.11
2019-04-21T03:53:06.838Z,49.29
2019-04-21T04:03:49.199Z,48.97
2019-04-21T04:06:03.916Z,48.74
2019-04-21T04:08:36.671Z,48.69
2019-04-21T04:13:34.183Z,48.45
2019-04-21T04:18:23.453Z,48.47
2019-04-21T04:23:10.219Z,48.23
2019-04-21T04:25:37.477Z,48.19
2019-04-21T04:30:43.654Z,48.25
2019-04-21T04:33:12.856Z,48.17
2019-04-21T04:35:48.558Z,48.08
2019-04-21T04:38:07.023Z,48.07
2019-04-21T04:40:48.941Z,47.91
2019-04-21T04:43:19.226Z,47.71
2019-04-21T04:53:12.032Z,47.34
2019-04-21T04:55:39.091Z,47.40
2019-04-21T05:03:05.521Z,47.27
2019-04-21T05:06:32.698Z,47.46
2019-04-21T05:08:52.946Z,47.38
2019-04-21T05:11:20.671Z,47.19
2019-04-21T05:13:51.168Z,46.84
2019-04-21T05:16:13.758Z,46.80
2019-04-21T05:18:36.752Z,46.68
2019-04-21T05:21:18.886Z,46.51
2019-04-21T05:23:18.101Z,46.20
2019-04-21T05:25:42.410Z,46.13
2019-04-21T05:28:08.836Z,45.96
2019-04-21T05:31:09.096Z,45.92
2019-04-21T05:33:53.234Z,45.78
2019-04-21T05:36:37.923Z,45.70
2019-04-21T05:39:18.821Z,45.52
2019-04-21T05:41:41.988Z,45.42
2019-04-21T05:44:27.994Z,45.35
2019-04-21T05:47:05.954Z,45.28
2019-04-21T05:49:26.694Z,45.27
2019-04-21T05:51:55.751Z,45.00
2019-04-21T05:54:52.858Z,45.14
2019-04-21T05:56:59.759Z,45.01
2019-04-21T05:59:29.343Z,45.03
2019-04-21T06:02:07.457Z,44.73
2019-04-21T06:04:38.464Z,44.75
2019-04-21T06:07:00.362Z,44.30
2019-04-21T06:09:27.413Z,44.34
2019-04-21T06:11:51.413Z,44.37
2019-04-21T06:14:21.733Z,44.29
2019-04-21T06:16:55.647Z,44.30
2019-04-21T06:19:29.303Z,44.16
2019-04-21T06:21:44.764Z,43.98
2019-04-21T06:24:15.997Z,44.26
2019-04-21T06:27:00.134Z,44.03
2019-04-21T06:29:18.506Z,43.98
2019-04-21T06:34:15.183Z,43.72
2019-04-21T06:39:41.654Z,43.42
2019-04-21T06:41:49.173Z,43.27
2019-04-21T06:46:43.783Z,43.19
2019-04-21T06:49:28.136Z,43.07
2019-04-21T06:51:38.952Z,42.78
2019-04-21T06:54:09.174Z,42.95
2019-04-21T06:59:06.332Z,42.66
2019-04-21T07:01:36.051Z,42.78
2019-04-21T07:06:30.575Z,42.75
2019-04-21T07:09:10.233Z,42.62
2019-04-21T07:11:21.406Z,42.62
2019-04-21T07:13:54.711Z,42.90
2019-04-21T07:16:25.716Z,42.92
2019-04-21T07:19:01.376Z,42.61
2019-04-21T07:21:23.508Z,42.62
2019-04-21T07:23:57.211Z,42.14
2019-04-21T07:26:19.419Z,42.00
2019-04-21T07:28:51.044Z,41.69
2019-04-21T07:31:18.495Z,41.48
2019-04-21T07:33:53.967Z,40.84
2019-04-21T07:36:20.025Z,40.85
2019-04-21T07:38:41.205Z,40.00
2019-04-21T07:41:05.599Z,40.44
2019-04-21T07:43:30.022Z,40.38
2019-04-21T07:45:58.526Z,40.73
2019-04-21T07:48:37.715Z,39.94
2019-04-21T07:51:18.834Z,39.19
2019-04-21T07:56:09.447Z,39.86
2019-04-21T07:58:53.907Z,40.57
2019-04-21T08:03:46.799Z,40.60
2019-04-21T08:06:22.790Z,40.68
2019-04-21T08:08:40.741Z,40.44
2019-04-21T08:11:10.874Z,39.51
2019-04-21T08:13:51.796Z,40.38
2019-04-21T08:16:10.567Z,39.33
2019-04-21T08:21:04.353Z,39.98
2019-04-21T08:23:31.924Z,39.81
2019-04-21T08:28:35.500Z,37.25
2019-04-21T08:30:55.474Z,36.92
2019-04-21T08:33:33.718Z,37.07
2019-04-21T08:36:14.437Z,36.68
2019-04-21T08:38:20.328Z,35.51
2019-04-21T08:40:59.069Z,36.50
2019-04-21T08:43:27.729Z,37.42
2019-04-21T08:45:57.267Z,37.29
2019-04-21T08:48:18.276Z,37.50
2019-04-21T08:50:44.267Z,36.38
2019-04-21T08:53:14.646Z,35.85
2019-04-21T08:55:49.276Z,36.16
2019-04-21T08:58:25.663Z,36.37
2019-04-21T09:01:01.084Z,36.58
2019-04-21T09:03:43.334Z,36.54
2019-04-21T09:06:17.489Z,36.39
2019-04-21T09:08:42.279Z,36.67
2019-04-21T09:11:09.730Z,36.18
2019-04-21T09:13:37.206Z,36.02
2019-04-21T09:15:59.431Z,36.38
2019-04-21T09:18:24.092Z,36.46
2019-04-21T09:20:58.554Z,36.89
2019-04-21T09:23:25.630Z,36.52
2019-04-21T09:25:58.833Z,36.56
2019-04-21T09:28:24.129Z,36.17
2019-04-21T09:30:41.617Z,33.65
2019-04-21T09:33:02.385Z,33.25
2019-04-21T09:35:29.218Z,34.48
2019-04-21T09:38:03.010Z,35.25
2019-04-21T09:40:30.111Z,35.42
2019-04-21T09:42:57.482Z,35.56
2019-04-21T09:45:22.535Z,35.05
2019-04-21T09:47:59.081Z,34.91
2019-04-21T09:50:19.856Z,33.94
2019-04-21T09:52:54.199Z,34.49
2019-04-21T09:55:19.600Z,33.53
2019-04-21T09:57:51.598Z,31.93
2019-04-21T10:00:18.467Z,32.13
2019-04-21T10:02:51.629Z,33.58
2019-04-21T10:05:09.991Z,32.90
2019-04-21T10:07:40.528Z,30.87
2019-04-21T10:10:06.058Z,32.05
2019-04-21T10:12:33.554Z,30.13
2019-04-21T10:14:59.945Z,30.55
2019-04-21T10:17:28.115Z,31.61
2019-04-21T10:19:55.092Z,32.67
2019-04-21T10:22:21.454Z,32.22
2019-04-21T10:24:48.795Z,32.20
2019-04-21T10:27:15.341Z,32.76
2019-04-21T10:29:44.558Z,32.35
2019-04-21T10:32:09.551Z,32.43
2019-04-21T10:34:36.793Z,32.55
2019-04-21T10:37:03.402Z,32.00
2019-04-21T10:39:29.663Z,31.72
2019-04-21T10:41:57.212Z,31.89
2019-04-21T10:44:23.572Z,31.49
2019-04-21T10:46:51.831Z,31.63
2019-04-21T10:49:18.983Z,31.76
2019-04-21T10:51:46.637Z,30.55
2019-04-21T10:54:13.691Z,29.73
2019-04-21T10:56:43.435Z,28.98
2019-04-21T10:59:08.246Z,30.35
2019-04-21T11:01:34.770Z,29.65
2019-04-21T11:04:03.083Z,28.00
2019-04-21T11:06:30.870Z,30.10
2019-04-21T11:08:59.576Z,28.87
2019-04-21T11:11:25.928Z,29.31
2019-04-21T11:13:52.627Z,28.19
2019-04-21T11:16:19.237Z,28.90
2019-04-21T11:18:46.104Z,28.37
2019-04-21T11:21:13.278Z,27.63
2019-04-21T11:23:40.477Z,27.77
2019-04-21T11:26:07.288Z,28.57
2019-04-21T11:28:34.733Z,29.04
2019-04-21T11:31:02.593Z,28.99
2019-04-21T11:33:29.097Z,28.56
2019-04-21T11:35:55.475Z,27.97
2019-04-21T11:38:51.298Z,27.68
2019-04-21T11:41:03.930Z,27.58
2019-04-21T11:43:30.812Z,25.75
2019-04-21T11:45:58.145Z,26.06
2019-04-21T11:48:26.269Z,27.09
2019-04-21T11:50:53.209Z,24.81
2019-04-21T11:53:20.933Z,24.40
2019-04-21T11:55:51.718Z,23.51
2019-04-21T11:58:18.073Z,21.87
2019-04-21T12:00:47.474Z,20.60
2019-04-21T12:03:15.360Z,19.89
2019-04-21T12:05:43.476Z,19.69
2019-04-21T12:08:21.195Z,18.84
2019-04-21T12:10:37.891Z,18.33
2019-04-21T12:13:07.258Z,18.11
2019-04-21T12:15:32.769Z,17.12
2019-04-21T12:17:59.629Z,16.43
2019-04-21T12:20:26.438Z,14.13
2019-04-21T12:22:52.999Z,15.00
2019-04-21T12:25:27.351Z,14.65
2019-04-21T12:27:54.169Z,14.41
2019-04-21T12:30:21.831Z,14.29
2019-04-21T12:32:50.100Z,13.47
2019-04-21T12:35:17.864Z,12.53
2019-04-21T12:37:44.819Z,12.49
2019-04-21T12:40:12.595Z,12.65
2019-04-21T12:42:41.716Z,13.08
2019-04-21T12:45:09.803Z,13.13
2019-04-21T12:47:37.692Z,12.88
2019-04-21T12:50:06.787Z,13.02
2019-04-21T12:52:33.635Z,13.11
2019-04-21T12:55:00.019Z,13.03
2019-04-21T12:57:30.219Z,13.10
2019-04-21T12:59:55.402Z,12.50
2019-04-21T13:02:21.974Z,12.77
2019-04-21T13:04:49.715Z,12.37
2019-04-21T13:07:17.393Z,12.07
2019-04-21T13:09:44.343Z,12.25
2019-04-21T13:12:11.149Z,11.84
2019-04-21T13:14:37.905Z,10.33
2019-04-21T13:17:05.649Z,11.42
2019-04-21T13:19:31.830Z,12.21
2019-04-21T13:21:58.276Z,12.65
2019-04-21T13:24:24.447Z,11.87
2019-04-21T13:26:55.963Z,10.82
2019-04-21T13:29:18.942Z,12.44
2019-04-21T13:31:45.057Z,12.44
2019-04-21T13:34:11.482Z,12.36
2019-04-21T13:36:37.573Z,12.14
2019-04-21T13:39:38.010Z,11.55
2019-04-21T13:41:47.492Z,11.66
2019-04-21T13:44:15.697Z,11.41
2019-04-21T13:46:43.006Z,11.43
2019-04-21T13:49:11.581Z,11.11
2019-04-21T13:51:38.574Z,11.77
2019-04-21T13:54:04.982Z,11.43
2019-04-21T13:56:32.345Z,11.13
2019-04-21T13:59:00.019Z,11.02
2019-04-21T14:01:27.651Z,11.16
2019-04-21T14:03:53.908Z,10.90
2019-04-21T14:06:20.454Z,11.18
2019-04-21T14:08:48.652Z,12.04
2019-04-21T14:11:15.562Z,12.38
2019-04-21T14:13:42.572Z,12.93
2019-04-21T14:16:09.698Z,13.07
2019-04-21T14:18:36.571Z,13.62
2019-04-21T14:21:03.375Z,14.39
2019-04-21T14:23:36.015Z,14.64
2019-04-21T14:25:57.922Z,14.99
2019-04-21T14:28:24.202Z,15.62
2019-04-21T14:30:50.581Z,15.61
2019-04-21T14:33:18.198Z,16.04
2019-04-21T14:35:45.111Z,14.98
2019-04-21T14:38:11.325Z,14.64
2019-04-21T14:40:38.850Z,14.56
2019-04-21T14:43:05.925Z,14.59
2019-04-21T14:45:34.638Z,14.49
2019-04-21T14:48:03.267Z,14.25
2019-04-21T14:50:48.433Z,14.21
2019-04-21T14:53:17.870Z,13.78
2019-04-21T14:55:45.737Z,13.90
2019-04-21T14:58:12.850Z,14.02
2019-04-21T15:00:45.971Z,13.74
2019-04-21T15:03:12.182Z,13.45
2019-04-21T15:05:39.687Z,13.55
2019-04-21T15:08:06.863Z,13.41
2019-04-21T15:10:33.996Z,13.08
2019-04-21T15:13:01.644Z,13.83
2019-04-21T15:15:27.982Z,14.74
2019-04-21T15:17:55.614Z,15.21
2019-04-21T15:20:23.836Z,15.79
2019-04-21T15:22:50.484Z,16.25
2019-04-21T15:25:16.758Z,16.71
2019-04-21T15:27:43.151Z,16.93
2019-04-21T15:30:10.935Z,17.03
2019-04-21T15:32:37.343Z,17.41
2019-04-21T15:35:04.383Z,17.96
2019-04-21T15:37:31.649Z,17.65
2019-04-21T15:39:58.538Z,17.44
2019-04-21T15:42:26.410Z,17.84
2019-04-21T15:44:52.682Z,18.26
2019-04-21T15:47:19.908Z,18.65
2019-04-21T15:50:01.175Z,19.51
2019-04-21T15:52:22.357Z,19.94
2019-04-21T15:54:50.294Z,20.10
2019-04-21T15:57:19.684Z,20.79
2019-04-21T15:59:50.734Z,20.98
2019-04-21T16:02:36.926Z,21.20
2019-04-21T16:05:06.632Z,21.82
2019-04-21T16:07:34.009Z,21.94
2019-04-21T16:10:02.030Z,22.33
2019-04-21T16:12:29.777Z,22.47
2019-04-21T16:14:56.514Z,22.64
2019-04-21T16:17:23.531Z,22.75
2019-04-21T16:19:52.073Z,23.19
2019-04-21T16:22:18.831Z,23.35
2019-04-21T16:24:46.070Z,23.15
2019-04-21T16:27:13.334Z,23.23
2019-04-21T16:29:39.579Z,23.52
2019-04-21T16:32:06.957Z,23.60
2019-04-21T16:34:42.745Z,24.09
2019-04-21T16:37:01.537Z,24.32
2019-04-21T16:39:29.457Z,24.29
2019-04-21T16:41:56.335Z,24.43
2019-04-21T16:44:23.158Z,24.64
2019-04-21T16:46:49.650Z,24.97
2019-04-21T16:49:15.946Z,24.77
2019-04-21T16:51:42.509Z,24.97
2019-04-21T16:54:10.698Z,25.63
2019-04-21T16:56:39.645Z,25.49
2019-04-21T16:59:08.542Z,25.53
2019-04-21T17:01:36.362Z,25.93
2019-04-21T17:04:04.486Z,26.17
2019-04-21T17:06:31.205Z,26.32
2019-04-21T17:08:59.018Z,26.40
2019-04-21T17:11:29.454Z,26.87
2019-04-21T17:13:54.231Z,27.03
2019-04-21T17:16:49.511Z,27.42
2019-04-21T17:19:00.574Z,27.89
2019-04-21T17:21:19.270Z,28.24
2019-04-21T17:23:46.454Z,28.73
2019-04-21T17:26:13.216Z,29.11
2019-04-21T17:28:40.624Z,29.16
2019-04-21T17:31:08.474Z,29.70
2019-04-21T17:33:35.508Z,29.95
2019-04-21T17:36:03.021Z,30.11
2019-04-21T17:38:30.126Z,30.39
2019-04-21T17:41:09.328Z,30.71
2019-04-21T17:43:25.776Z,30.66
2019-04-21T17:45:53.214Z,30.93
2019-04-21T17:48:21.456Z,31.09
2019-04-21T17:50:56.626Z,31.20
2019-04-21T17:53:38.200Z,31.20
2019-04-21T17:56:19.414Z,31.55
2019-04-21T17:58:49.284Z,31.58
2019-04-21T18:01:19.371Z,31.75
2019-04-21T18:03:56.926Z,31.90
2019-04-21T18:06:05.289Z,31.95
2019-04-21T18:08:43.050Z,32.33
2019-04-21T18:11:01.205Z,32.55
2019-04-21T18:13:22.674Z,32.97
2019-04-21T18:15:55.805Z,33.10
2019-04-21T18:18:14.916Z,33.39
2019-04-21T18:20:46.157Z,33.58
2019-04-21T18:23:43.915Z,33.95
2019-04-21T18:26:07.129Z,34.02
2019-04-21T18:28:28.488Z,34.25
2019-04-21T18:30:56.769Z,34.81
2019-04-21T18:33:29.936Z,34.94
2019-04-21T18:35:58.587Z,35.29
2019-04-21T18:39:00.149Z,35.46
2019-04-21T18:41:13.358Z,36.03
2019-04-21T18:44:21.292Z,36.17
2019-04-21T18:46:55.575Z,36.36
2019-04-21T18:49:06.745Z,36.46
2019-04-21T18:51:58.681Z,36.95
2019-04-21T18:54:36.026Z,37.04
2019-04-21T18:56:57.629Z,36.95
2019-04-21T18:59:14.427Z,37.60
2019-04-21T19:01:49.821Z,38.26
2019-04-21T19:04:14.361Z,38.80
2019-04-21T19:06:51.672Z,38.82
2019-04-21T19:09:32.523Z,39.39
2019-04-21T19:11:53.486Z,39.68
2019-04-21T19:21:46.998Z,40.81
2019-04-21T19:24:25.327Z,41.05
2019-04-21T19:26:52.105Z,40.76
2019-04-21T19:29:22.789Z,41.17
2019-04-21T19:31:44.684Z,41.42
2019-04-21T19:34:03.502Z,41.55
2019-04-21T19:36:21.549Z,41.75
2019-04-21T19:38:58.283Z,41.86
2019-04-21T19:41:32.480Z,42.08
2019-04-21T19:44:02.689Z,42.18
2019-04-21T19:46:28.081Z,42.05
2019-04-21T19:49:05.509Z,41.76
2019-04-21T19:51:24.866Z,41.67
2019-04-21T19:53:50.441Z,41.87
2019-04-21T19:56:05.960Z,42.12
2019-04-21T19:58:38.051Z,42.24
2019-04-21T20:01:01.602Z,42.17
2019-04-21T20:03:28.541Z,42.08
2019-04-21T20:06:06.009Z,42.44
2019-04-21T20:08:36.459Z,42.62
2019-04-21T20:11:10.430Z,42.52
2019-04-21T20:13:56.953Z,42.26
2019-04-21T20:16:10.676Z,42.06
2019-04-21T20:18:26.070Z,41.72
2019-04-21T20:20:45.889Z,41.62
2019-04-21T20:23:18.054Z,41.66
2019-04-21T20:25:48.476Z,41.37
2019-04-21T20:28:17.354Z,41.15
2019-04-21T20:30:56.036Z,41.38
2019-04-21T20:33:42.897Z,41.79
2019-04-21T20:38:15.671Z,41.38
2019-04-21T20:40:44.090Z,41.44
2019-04-21T20:43:16.505Z,41.60
2019-04-21T20:45:49.420Z,41.60
2019-04-21T20:47:56.150Z,41.83
2019-04-21T20:50:33.347Z,41.23
2019-04-21T20:53:06.014Z,41.23
2019-04-21T20:55:29.269Z,40.36
2019-04-21T20:57:58.033Z,40.02
2019-04-21T21:00:30.144Z,39.38
2019-04-21T21:03:04.196Z,39.41
2019-04-21T21:05:27.479Z,39.25
2019-04-21T21:08:05.143Z,39.18
2019-04-21T21:10:31.540Z,38.62
2019-04-21T21:12:57.513Z,38.85
2019-04-21T21:15:18.335Z,40.13
2019-04-21T21:18:01.529Z,40.64
2019-04-21T21:20:27.873Z,40.65
2019-04-21T21:22:47.820Z,40.42
2019-04-21T21:25:25.838Z,40.28
2019-04-21T21:27:42.052Z,40.41
2019-04-21T21:30:14.589Z,39.39
2019-04-21T21:32:42.882Z,38.98
2019-04-21T21:35:13.145Z,39.38
2019-04-21T21:37:41.031Z,38.85
2019-04-21T21:40:10.654Z,39.02
2019-04-21T21:42:25.687Z,38.49
2019-04-21T21:44:50.474Z,38.22
2019-04-21T21:47:31.974Z,38.03
2019-04-21T21:49:55.439Z,37.64
2019-04-21T21:52:22.198Z,37.62
2019-04-21T21:54:40.014Z,37.47
2019-04-21T21:57:06.569Z,37.23
2019-04-21T21:59:36.479Z,37.33
2019-04-21T22:02:03.146Z,37.25
2019-04-21T22:04:32.445Z,37.13
2019-04-21T22:07:04.644Z,37.12
2019-04-21T22:09:26.416Z,37.25
2019-04-21T22:11:56.701Z,37.15
2019-04-21T22:14:25.953Z,37.57
2019-04-21T22:17:07.637Z,37.60
2019-04-21T22:19:36.727Z,37.60
2019-04-21T22:22:07.727Z,37.75
2019-04-21T22:24:36.592Z,37.93
2019-04-21T22:26:43.334Z,38.14
2019-04-21T22:29:09.756Z,38.37
2019-04-21T22:31:39.246Z,38.78
2019-04-21T22:34:07.567Z,39.05
2019-04-21T22:36:44.457Z,39.00
2019-04-21T22:39:20.777Z,39.10
2019-04-21T22:41:40.516Z,39.20
2019-04-21T22:44:00.959Z,39.50
2019-04-21T22:46:28.584Z,39.66
2019-04-21T22:49:00.909Z,39.87
2019-04-21T22:51:30.220Z,39.88
2019-04-21T22:53:54.301Z,40.25
2019-04-21T22:56:25.582Z,40.37
2019-04-21T22:58:48.301Z,40.50
2019-04-21T23:01:20.109Z,40.59
2019-04-21T23:03:50.238Z,40.66
2019-04-21T23:06:19.267Z,40.73
2019-04-21T23:08:43.578Z,40.96
2019-04-21T23:11:11.924Z,41.30
2019-04-21T23:13:38.636Z,41.26
2019-04-21T23:16:07.571Z,41.55
2019-04-21T23:18:46.376Z,41.75
2019-04-21T23:21:16.331Z,41.75
2019-04-21T23:23:54.104Z,42.14
2019-04-21T23:26:18.244Z,42.06
2019-04-21T23:28:46.681Z,42.39
2019-04-21T23:31:11.102Z,42.61
2019-04-21T23:33:23.866Z,42.67
2019-04-21T23:36:00.972Z,43.00
2019-04-21T23:38:26.573Z,43.17
2019-04-21T23:40:54.298Z,42.98
2019-04-21T23:43:20.599Z,43.32
2019-04-21T23:45:45.314Z,43.30
2019-04-21T23:48:27.161Z,43.35
2019-04-21T23:50:50.450Z,43.43
2019-04-21T23:53:07.877Z,43.74
2019-04-21T23:55:35.001Z,43.60
2019-04-21T23:58:07.013Z,43.86
